sensor_id;sensor_type;location;lat;lon;timestamp;temperature;humidity
22827;DHT22;11580;52.562;13.418;2022-11-20T00:01:34;6.80;35.00
22827;DHT22;11580;52.562;13.418;2022-11-20T00:04:02;6.80;35.00
22827;DHT22;11580;52.562;13.418;2022-11-20T00:06:29;6.90;34.90
22827;DHT22;11580;52.562;13.418;2022-11-20T00:08:58;6.90;34.80
22827;DHT22;11580;52.562;13.418;2022-11-20T00:11:28;6.90;34.80
22827;DHT22;11580;52.562;13.418;2022-11-20T00:13:57;6.90;34.70
22827;DHT22;11580;52.562;13.418;2022-11-20T00:16:28;6.90;34.70
22827;DHT22;11580;52.562;13.418;2022-11-20T00:18:58;6.90;34.60
22827;DHT22;11580;52.562;13.418;2022-11-20T00:21:27;6.80;34.50
22827;DHT22;11580;52.562;13.418;2022-11-20T00:23:56;6.80;34.60
22827;DHT22;11580;52.562;13.418;2022-11-20T00:26:25;6.80;34.50
22827;DHT22;11580;52.562;13.418;2022-11-20T00:28:55;6.80;34.50
22827;DHT22;11580;52.562;13.418;2022-11-20T00:31:23;6.80;34.50
22827;DHT22;11580;52.562;13.418;2022-11-20T00:33:51;6.80;34.50
22827;DHT22;11580;52.562;13.418;2022-11-20T00:36:21;6.80;34.50
22827;DHT22;11580;52.562;13.418;2022-11-20T00:38:51;6.80;34.50
22827;DHT22;11580;52.562;13.418;2022-11-20T00:41:19;6.80;34.40
22827;DHT22;11580;52.562;13.418;2022-11-20T00:43:47;6.80;34.40
22827;DHT22;11580;52.562;13.418;2022-11-20T00:46:15;6.70;34.30
22827;DHT22;11580;52.562;13.418;2022-11-20T00:48:44;6.70;34.40
22827;DHT22;11580;52.562;13.418;2022-11-20T00:51:14;6.70;34.30
22827;DHT22;11580;52.562;13.418;2022-11-20T00:53:44;6.70;34.30
22827;DHT22;11580;52.562;13.418;2022-11-20T00:56:12;6.70;34.40
22827;DHT22;11580;52.562;13.418;2022-11-20T00:58:43;6.70;34.40
22827;DHT22;11580;52.562;13.418;2022-11-20T01:01:12;6.70;34.50
22827;DHT22;11580;52.562;13.418;2022-11-20T01:03:43;6.70;34.50
22827;DHT22;11580;52.562;13.418;2022-11-20T01:06:14;6.70;34.30
22827;DHT22;11580;52.562;13.418;2022-11-20T01:08:44;6.70;34.30
22827;DHT22;11580;52.562;13.418;2022-11-20T01:11:14;6.60;34.30
22827;DHT22;11580;52.562;13.418;2022-11-20T01:13:44;6.70;34.50
22827;DHT22;11580;52.562;13.418;2022-11-20T01:16:13;6.60;34.40
22827;DHT22;11580;52.562;13.418;2022-11-20T01:18:43;6.60;34.30
22827;DHT22;11580;52.562;13.418;2022-11-20T01:21:13;6.60;34.40
22827;DHT22;11580;52.562;13.418;2022-11-20T01:23:42;6.70;34.50
22827;DHT22;11580;52.562;13.418;2022-11-20T01:26:13;6.70;34.50
22827;DHT22;11580;52.562;13.418;2022-11-20T01:28:42;6.70;34.50
22827;DHT22;11580;52.562;13.418;2022-11-20T01:31:15;6.70;34.40
22827;DHT22;11580;52.562;13.418;2022-11-20T01:33:44;6.70;34.30
22827;DHT22;11580;52.562;13.418;2022-11-20T01:36:14;6.70;34.30
22827;DHT22;11580;52.562;13.418;2022-11-20T01:38:43;6.70;34.30
22827;DHT22;11580;52.562;13.418;2022-11-20T01:41:12;6.80;34.40
22827;DHT22;11580;52.562;13.418;2022-11-20T01:44:03;6.80;35.00
22827;DHT22;11580;52.562;13.418;2022-11-20T01:46:31;6.80;34.00
22827;DHT22;11580;52.562;13.418;2022-11-20T01:49:02;6.80;33.90
22827;DHT22;11580;52.562;13.418;2022-11-20T01:51:39;6.80;33.90
22827;DHT22;11580;52.562;13.418;2022-11-20T01:54:16;6.80;33.80
22827;DHT22;11580;52.562;13.418;2022-11-20T01:56:46;6.80;33.70
22827;DHT22;11580;52.562;13.418;2022-11-20T01:59:18;6.90;34.50
22827;DHT22;11580;52.562;13.418;2022-11-20T02:01:47;6.90;33.70
22827;DHT22;11580;52.562;13.418;2022-11-20T02:04:15;6.90;33.70
22827;DHT22;11580;52.562;13.418;2022-11-20T02:06:47;6.90;33.60
22827;DHT22;11580;52.562;13.418;2022-11-20T02:09:20;6.90;33.50
22827;DHT22;11580;52.562;13.418;2022-11-20T02:11:47;6.90;33.50
22827;DHT22;11580;52.562;13.418;2022-11-20T02:14:14;6.90;33.50
22827;DHT22;11580;52.562;13.418;2022-11-20T02:16:46;6.90;33.40
22827;DHT22;11580;52.562;13.418;2022-11-20T02:19:22;6.90;33.30
22827;DHT22;11580;52.562;13.418;2022-11-20T02:21:57;6.90;33.10
22827;DHT22;11580;52.562;13.418;2022-11-20T02:24:30;6.90;33.00
22827;DHT22;11580;52.562;13.418;2022-11-20T02:27:00;6.90;33.10
22827;DHT22;11580;52.562;13.418;2022-11-20T02:29:33;6.90;33.10
22827;DHT22;11580;52.562;13.418;2022-11-20T02:32:06;6.90;33.10
22827;DHT22;11580;52.562;13.418;2022-11-20T02:34:44;6.90;33.20
22827;DHT22;11580;52.562;13.418;2022-11-20T02:37:11;6.90;33.20
22827;DHT22;11580;52.562;13.418;2022-11-20T02:39:40;6.90;33.10
22827;DHT22;11580;52.562;13.418;2022-11-20T02:42:08;6.90;32.90
22827;DHT22;11580;52.562;13.418;2022-11-20T02:44:36;7.00;33.00
22827;DHT22;11580;52.562;13.418;2022-11-20T02:47:03;7.00;33.60
22827;DHT22;11580;52.562;13.418;2022-11-20T02:49:30;7.00;32.80
22827;DHT22;11580;52.562;13.418;2022-11-20T02:51:58;7.00;32.70
22827;DHT22;11580;52.562;13.418;2022-11-20T02:54:26;7.00;32.70
22827;DHT22;11580;52.562;13.418;2022-11-20T02:56:54;7.00;33.40
22827;DHT22;11580;52.562;13.418;2022-11-20T02:59:21;7.00;32.70
22827;DHT22;11580;52.562;13.418;2022-11-20T03:01:49;7.00;32.70
22827;DHT22;11580;52.562;13.418;2022-11-20T03:04:16;7.00;32.70
22827;DHT22;11580;52.562;13.418;2022-11-20T03:06:43;7.00;32.70
22827;DHT22;11580;52.562;13.418;2022-11-20T03:09:11;7.00;32.70
22827;DHT22;11580;52.562;13.418;2022-11-20T03:11:39;7.00;32.70
22827;DHT22;11580;52.562;13.418;2022-11-20T03:14:07;7.00;32.70
22827;DHT22;11580;52.562;13.418;2022-11-20T03:16:34;7.00;32.70
22827;DHT22;11580;52.562;13.418;2022-11-20T03:19:02;7.00;33.40
22827;DHT22;11580;52.562;13.418;2022-11-20T03:21:29;7.00;32.70
22827;DHT22;11580;52.562;13.418;2022-11-20T03:23:56;7.00;32.60
22827;DHT22;11580;52.562;13.418;2022-11-20T03:26:25;7.00;32.60
22827;DHT22;11580;52.562;13.418;2022-11-20T03:28:55;7.00;32.50
22827;DHT22;11580;52.562;13.418;2022-11-20T03:31:26;7.00;32.50
22827;DHT22;11580;52.562;13.418;2022-11-20T03:33:55;7.00;32.50
22827;DHT22;11580;52.562;13.418;2022-11-20T03:36:24;7.00;32.70
22827;DHT22;11580;52.562;13.418;2022-11-20T03:38:53;7.00;32.70
22827;DHT22;11580;52.562;13.418;2022-11-20T03:41:22;7.00;32.70
22827;DHT22;11580;52.562;13.418;2022-11-20T03:43:52;7.00;32.70
22827;DHT22;11580;52.562;13.418;2022-11-20T03:46:21;7.00;32.60
22827;DHT22;11580;52.562;13.418;2022-11-20T03:48:50;7.00;32.60
22827;DHT22;11580;52.562;13.418;2022-11-20T03:51:19;7.00;32.30
22827;DHT22;11580;52.562;13.418;2022-11-20T03:53:48;7.00;32.30
22827;DHT22;11580;52.562;13.418;2022-11-20T03:56:18;7.00;32.40
22827;DHT22;11580;52.562;13.418;2022-11-20T03:58:47;7.00;32.40
22827;DHT22;11580;52.562;13.418;2022-11-20T04:01:15;7.00;32.40
22827;DHT22;11580;52.562;13.418;2022-11-20T04:03:45;7.00;32.30
22827;DHT22;11580;52.562;13.418;2022-11-20T04:06:15;7.00;32.30
22827;DHT22;11580;52.562;13.418;2022-11-20T04:08:44;7.00;32.10
22827;DHT22;11580;52.562;13.418;2022-11-20T04:11:13;7.00;32.20
22827;DHT22;11580;52.562;13.418;2022-11-20T04:13:42;7.00;32.10
22827;DHT22;11580;52.562;13.418;2022-11-20T04:16:13;7.00;32.80
22827;DHT22;11580;52.562;13.418;2022-11-20T04:18:41;7.00;32.10
22827;DHT22;11580;52.562;13.418;2022-11-20T04:21:09;7.00;32.80
22827;DHT22;11580;52.562;13.418;2022-11-20T04:23:38;7.00;32.10
22827;DHT22;11580;52.562;13.418;2022-11-20T04:26:07;7.00;32.10
22827;DHT22;11580;52.562;13.418;2022-11-20T04:28:36;7.00;32.10
22827;DHT22;11580;52.562;13.418;2022-11-20T04:31:05;7.00;32.10
22827;DHT22;11580;52.562;13.418;2022-11-20T04:33:33;6.90;31.90
22827;DHT22;11580;52.562;13.418;2022-11-20T04:36:02;6.90;32.00
22827;DHT22;11580;52.562;13.418;2022-11-20T04:38:31;6.90;31.90
22827;DHT22;11580;52.562;13.418;2022-11-20T04:41:01;6.90;32.10
22827;DHT22;11580;52.562;13.418;2022-11-20T04:43:30;6.90;31.90
22827;DHT22;11580;52.562;13.418;2022-11-20T04:45:59;6.90;32.00
22827;DHT22;11580;52.562;13.418;2022-11-20T04:48:28;6.90;31.90
22827;DHT22;11580;52.562;13.418;2022-11-20T04:50:56;6.90;31.80
22827;DHT22;11580;52.562;13.418;2022-11-20T04:53:23;6.90;31.80
22827;DHT22;11580;52.562;13.418;2022-11-20T04:55:51;6.90;32.50
22827;DHT22;11580;52.562;13.418;2022-11-20T04:58:19;6.90;32.50
22827;DHT22;11580;52.562;13.418;2022-11-20T05:00:46;6.80;31.70
22827;DHT22;11580;52.562;13.418;2022-11-20T05:03:13;6.80;31.70
22827;DHT22;11580;52.562;13.418;2022-11-20T05:05:41;6.80;31.70
22827;DHT22;11580;52.562;13.418;2022-11-20T05:08:08;6.80;31.80
22827;DHT22;11580;52.562;13.418;2022-11-20T05:10:35;6.80;31.90
22827;DHT22;11580;52.562;13.418;2022-11-20T05:13:02;6.70;32.60
22827;DHT22;11580;52.562;13.418;2022-11-20T05:15:30;6.70;31.90
22827;DHT22;11580;52.562;13.418;2022-11-20T05:17:59;6.70;31.90
22827;DHT22;11580;52.562;13.418;2022-11-20T05:20:26;6.70;31.90
22827;DHT22;11580;52.562;13.418;2022-11-20T05:22:56;6.70;31.90
22827;DHT22;11580;52.562;13.418;2022-11-20T05:25:23;6.70;31.90
22827;DHT22;11580;52.562;13.418;2022-11-20T05:27:51;6.70;31.90
22827;DHT22;11580;52.562;13.418;2022-11-20T05:30:18;6.70;32.00
22827;DHT22;11580;52.562;13.418;2022-11-20T05:32:46;6.70;32.00
22827;DHT22;11580;52.562;13.418;2022-11-20T05:35:13;6.70;32.00
22827;DHT22;11580;52.562;13.418;2022-11-20T05:37:41;6.70;32.00
22827;DHT22;11580;52.562;13.418;2022-11-20T05:40:09;6.70;32.00
22827;DHT22;11580;52.562;13.418;2022-11-20T05:42:37;6.70;32.00
22827;DHT22;11580;52.562;13.418;2022-11-20T05:45:05;6.70;32.00
22827;DHT22;11580;52.562;13.418;2022-11-20T05:47:34;6.70;32.00
22827;DHT22;11580;52.562;13.418;2022-11-20T05:50:03;6.70;32.00
22827;DHT22;11580;52.562;13.418;2022-11-20T05:52:30;6.70;32.00
22827;DHT22;11580;52.562;13.418;2022-11-20T05:54:58;6.70;32.00
22827;DHT22;11580;52.562;13.418;2022-11-20T05:57:25;6.60;31.90
22827;DHT22;11580;52.562;13.418;2022-11-20T05:59:52;6.60;31.90
22827;DHT22;11580;52.562;13.418;2022-11-20T06:02:19;6.60;31.90
22827;DHT22;11580;52.562;13.418;2022-11-20T06:04:46;6.60;31.90
22827;DHT22;11580;52.562;13.418;2022-11-20T06:07:15;6.60;31.90
22827;DHT22;11580;52.562;13.418;2022-11-20T06:09:42;6.60;32.00
22827;DHT22;11580;52.562;13.418;2022-11-20T06:12:10;6.60;32.00
22827;DHT22;11580;52.562;13.418;2022-11-20T06:14:37;6.60;32.10
22827;DHT22;11580;52.562;13.418;2022-11-20T06:17:04;6.60;32.30
22827;DHT22;11580;52.562;13.418;2022-11-20T06:19:31;6.60;32.10
22827;DHT22;11580;52.562;13.418;2022-11-20T06:21:58;6.60;32.20
22827;DHT22;11580;52.562;13.418;2022-11-20T06:24:27;6.60;32.20
22827;DHT22;11580;52.562;13.418;2022-11-20T06:26:54;6.60;32.20
22827;DHT22;11580;52.562;13.418;2022-11-20T06:29:21;6.60;32.20
22827;DHT22;11580;52.562;13.418;2022-11-20T06:31:48;6.60;32.30
22827;DHT22;11580;52.562;13.418;2022-11-20T06:34:16;6.60;32.30
22827;DHT22;11580;52.562;13.418;2022-11-20T06:36:43;6.60;32.40
22827;DHT22;11580;52.562;13.418;2022-11-20T06:39:10;6.60;32.40
22827;DHT22;11580;52.562;13.418;2022-11-20T06:41:39;6.60;32.40
22827;DHT22;11580;52.562;13.418;2022-11-20T06:44:06;6.60;32.30
22827;DHT22;11580;52.562;13.418;2022-11-20T06:46:33;6.60;32.30
22827;DHT22;11580;52.562;13.418;2022-11-20T06:49:00;6.60;32.30
22827;DHT22;11580;52.562;13.418;2022-11-20T06:51:28;6.70;32.40
22827;DHT22;11580;52.562;13.418;2022-11-20T06:53:55;6.70;32.40
22827;DHT22;11580;52.562;13.418;2022-11-20T06:56:22;6.70;32.50
22827;DHT22;11580;52.562;13.418;2022-11-20T06:58:50;6.70;32.40
22827;DHT22;11580;52.562;13.418;2022-11-20T07:01:18;6.70;32.40
22827;DHT22;11580;52.562;13.418;2022-11-20T07:03:45;6.70;32.40
22827;DHT22;11580;52.562;13.418;2022-11-20T07:06:15;6.80;32.60
22827;DHT22;11580;52.562;13.418;2022-11-20T07:08:42;6.80;32.50
22827;DHT22;11580;52.562;13.418;2022-11-20T07:11:12;6.80;32.50
22827;DHT22;11580;52.562;13.418;2022-11-20T07:13:39;6.90;32.60
22827;DHT22;11580;52.562;13.418;2022-11-20T07:16:08;6.90;32.60
22827;DHT22;11580;52.562;13.418;2022-11-20T07:18:35;6.90;32.40
22827;DHT22;11580;52.562;13.418;2022-11-20T07:21:05;7.00;32.60
22827;DHT22;11580;52.562;13.418;2022-11-20T07:23:33;7.00;32.40
22827;DHT22;11580;52.562;13.418;2022-11-20T07:26:03;7.00;32.40
22827;DHT22;11580;52.562;13.418;2022-11-20T07:28:31;7.10;32.30
22827;DHT22;11580;52.562;13.418;2022-11-20T07:30:58;7.10;32.30
22827;DHT22;11580;52.562;13.418;2022-11-20T07:33:27;7.10;32.30
22827;DHT22;11580;52.562;13.418;2022-11-20T07:35:54;7.20;32.20
22827;DHT22;11580;52.562;13.418;2022-11-20T07:38:21;7.20;32.20
22827;DHT22;11580;52.562;13.418;2022-11-20T07:40:52;7.20;32.20
22827;DHT22;11580;52.562;13.418;2022-11-20T07:43:20;7.30;32.20
22827;DHT22;11580;52.562;13.418;2022-11-20T07:45:47;7.30;32.10
22827;DHT22;11580;52.562;13.418;2022-11-20T07:48:14;7.30;32.00
22827;DHT22;11580;52.562;13.418;2022-11-20T07:50:43;7.40;32.00
22827;DHT22;11580;52.562;13.418;2022-11-20T07:53:10;7.40;32.00
22827;DHT22;11580;52.562;13.418;2022-11-20T07:55:38;7.40;32.00
22827;DHT22;11580;52.562;13.418;2022-11-20T07:58:05;7.40;32.00
22827;DHT22;11580;52.562;13.418;2022-11-20T08:00:32;7.50;32.70
22827;DHT22;11580;52.562;13.418;2022-11-20T08:03:03;7.50;32.70
22827;DHT22;11580;52.562;13.418;2022-11-20T08:05:30;7.60;31.90
22827;DHT22;11580;52.562;13.418;2022-11-20T08:07:58;7.60;32.10
22827;DHT22;11580;52.562;13.418;2022-11-20T08:10:26;7.70;31.90
22827;DHT22;11580;52.562;13.418;2022-11-20T08:12:53;7.80;32.10
22827;DHT22;11580;52.562;13.418;2022-11-20T08:15:39;7.80;32.60
22827;DHT22;11580;52.562;13.418;2022-11-20T08:18:08;7.80;31.70
22827;DHT22;11580;52.562;13.418;2022-11-20T08:20:37;7.90;31.70
22827;DHT22;11580;52.562;13.418;2022-11-20T08:23:07;7.90;31.60
22827;DHT22;11580;52.562;13.418;2022-11-20T08:25:35;7.90;31.30
22827;DHT22;11580;52.562;13.418;2022-11-20T08:28:05;8.00;32.10
22827;DHT22;11580;52.562;13.418;2022-11-20T08:30:33;8.00;31.10
22827;DHT22;11580;52.562;13.418;2022-11-20T08:33:02;8.10;31.20
22827;DHT22;11580;52.562;13.418;2022-11-20T08:35:32;8.10;31.00
22827;DHT22;11580;52.562;13.418;2022-11-20T08:38:01;8.10;30.60
22827;DHT22;11580;52.562;13.418;2022-11-20T08:40:30;8.10;30.80
22827;DHT22;11580;52.562;13.418;2022-11-20T08:42:58;8.10;30.70
22827;DHT22;11580;52.562;13.418;2022-11-20T08:45:25;8.10;30.80
22827;DHT22;11580;52.562;13.418;2022-11-20T08:47:52;8.20;30.90
22827;DHT22;11580;52.562;13.418;2022-11-20T08:50:19;8.20;30.80
22827;DHT22;11580;52.562;13.418;2022-11-20T08:52:47;8.20;31.60
22827;DHT22;11580;52.562;13.418;2022-11-20T08:55:14;8.30;30.90
22827;DHT22;11580;52.562;13.418;2022-11-20T08:57:42;8.30;30.80
22827;DHT22;11580;52.562;13.418;2022-11-20T09:00:10;8.40;30.50
22827;DHT22;11580;52.562;13.418;2022-11-20T09:02:38;8.40;30.50
22827;DHT22;11580;52.562;13.418;2022-11-20T09:05:06;8.40;30.40
22827;DHT22;11580;52.562;13.418;2022-11-20T09:07:33;8.50;30.20
22827;DHT22;11580;52.562;13.418;2022-11-20T09:10:00;8.50;30.80
22827;DHT22;11580;52.562;13.418;2022-11-20T09:12:28;8.50;30.10
22827;DHT22;11580;52.562;13.418;2022-11-20T09:14:57;8.50;30.00
22827;DHT22;11580;52.562;13.418;2022-11-20T09:17:24;8.50;29.90
22827;DHT22;11580;52.562;13.418;2022-11-20T09:19:51;8.50;30.00
22827;DHT22;11580;52.562;13.418;2022-11-20T09:22:18;8.50;30.10
22827;DHT22;11580;52.562;13.418;2022-11-20T09:24:45;8.50;30.00
22827;DHT22;11580;52.562;13.418;2022-11-20T09:27:13;8.50;30.10
22827;DHT22;11580;52.562;13.418;2022-11-20T09:29:40;8.50;30.10
22827;DHT22;11580;52.562;13.418;2022-11-20T09:32:08;8.60;30.10
22827;DHT22;11580;52.562;13.418;2022-11-20T09:34:35;8.60;30.00
22827;DHT22;11580;52.562;13.418;2022-11-20T09:37:02;8.70;30.10
22827;DHT22;11580;52.562;13.418;2022-11-20T09:39:30;8.70;30.10
22827;DHT22;11580;52.562;13.418;2022-11-20T09:42:11;8.70;30.10
22827;DHT22;11580;52.562;13.418;2022-11-20T09:44:58;8.80;29.30
22827;DHT22;11580;52.562;13.418;2022-11-20T09:47:50;8.90;29.70
22827;DHT22;11580;52.562;13.418;2022-11-20T09:50:32;8.90;29.80
22827;DHT22;11580;52.562;13.418;2022-11-20T09:53:12;8.90;29.70
22827;DHT22;11580;52.562;13.418;2022-11-20T09:55:45;9.00;29.30
22827;DHT22;11580;52.562;13.418;2022-11-20T09:58:18;9.10;30.00
22827;DHT22;11580;52.562;13.418;2022-11-20T10:00:52;9.10;29.80
22827;DHT22;11580;52.562;13.418;2022-11-20T10:03:34;9.20;30.00
22827;DHT22;11580;52.562;13.418;2022-11-20T10:06:11;9.30;29.10
22827;DHT22;11580;52.562;13.418;2022-11-20T10:08:45;9.40;29.60
22827;DHT22;11580;52.562;13.418;2022-11-20T10:11:26;9.50;29.80
22827;DHT22;11580;52.562;13.418;2022-11-20T10:14:10;9.50;29.30
22827;DHT22;11580;52.562;13.418;2022-11-20T10:16:54;9.80;29.70
22827;DHT22;11580;52.562;13.418;2022-11-20T10:19:47;9.70;29.00
22827;DHT22;11580;52.562;13.418;2022-11-20T10:22:40;9.70;28.70
22827;DHT22;11580;52.562;13.418;2022-11-20T10:25:19;9.80;28.80
22827;DHT22;11580;52.562;13.418;2022-11-20T10:28:16;9.80;29.20
22827;DHT22;11580;52.562;13.418;2022-11-20T10:30:57;9.80;28.30
22827;DHT22;11580;52.562;13.418;2022-11-20T10:33:31;9.90;29.00
22827;DHT22;11580;52.562;13.418;2022-11-20T10:36:12;9.90;29.20
22827;DHT22;11580;52.562;13.418;2022-11-20T10:38:46;9.90;28.50
22827;DHT22;11580;52.562;13.418;2022-11-20T10:41:21;9.90;29.10
22827;DHT22;11580;52.562;13.418;2022-11-20T10:43:57;9.80;28.80
22827;DHT22;11580;52.562;13.418;2022-11-20T10:46:37;9.80;29.10
22827;DHT22;11580;52.562;13.418;2022-11-20T10:49:13;9.80;28.50
22827;DHT22;11580;52.562;13.418;2022-11-20T10:51:55;9.80;29.20
22827;DHT22;11580;52.562;13.418;2022-11-20T10:54:36;9.80;28.40
22827;DHT22;11580;52.562;13.418;2022-11-20T10:57:15;9.80;28.90
22827;DHT22;11580;52.562;13.418;2022-11-20T11:00:03;9.80;29.10
22827;DHT22;11580;52.562;13.418;2022-11-20T11:02:35;9.90;28.40
22827;DHT22;11580;52.562;13.418;2022-11-20T11:05:16;10.00;28.50
22827;DHT22;11580;52.562;13.418;2022-11-20T11:07:53;10.10;27.90
22827;DHT22;11580;52.562;13.418;2022-11-20T11:10:28;10.20;28.20
22827;DHT22;11580;52.562;13.418;2022-11-20T11:13:03;10.20;28.00
22827;DHT22;11580;52.562;13.418;2022-11-20T11:15:37;10.30;28.50
22827;DHT22;11580;52.562;13.418;2022-11-20T11:18:08;10.30;28.10
22827;DHT22;11580;52.562;13.418;2022-11-20T11:20:37;10.30;27.80
22827;DHT22;11580;52.562;13.418;2022-11-20T11:23:26;10.30;28.00
22827;DHT22;11580;52.562;13.418;2022-11-20T11:25:58;10.30;27.50
22827;DHT22;11580;52.562;13.418;2022-11-20T11:28:28;10.30;27.70
22827;DHT22;11580;52.562;13.418;2022-11-20T11:30:55;10.30;27.80
22827;DHT22;11580;52.562;13.418;2022-11-20T11:33:24;10.30;27.80
22827;DHT22;11580;52.562;13.418;2022-11-20T11:35:53;10.30;27.70
22827;DHT22;11580;52.562;13.418;2022-11-20T11:38:29;10.30;27.70
22827;DHT22;11580;52.562;13.418;2022-11-20T11:41:01;10.20;27.70
22827;DHT22;11580;52.562;13.418;2022-11-20T11:43:32;10.20;27.70
22827;DHT22;11580;52.562;13.418;2022-11-20T11:46:27;10.20;27.50
22827;DHT22;11580;52.562;13.418;2022-11-20T11:48:59;10.20;27.10
22827;DHT22;11580;52.562;13.418;2022-11-20T11:51:33;10.20;27.70
22827;DHT22;11580;52.562;13.418;2022-11-20T11:54:13;10.20;27.50
22827;DHT22;11580;52.562;13.418;2022-11-20T11:56:43;10.10;27.50
22827;DHT22;11580;52.562;13.418;2022-11-20T11:59:16;10.00;27.70
22827;DHT22;11580;52.562;13.418;2022-11-20T12:01:53;10.00;27.80
22827;DHT22;11580;52.562;13.418;2022-11-20T12:04:36;9.90;28.60
22827;DHT22;11580;52.562;13.418;2022-11-20T12:07:13;9.80;28.60
22827;DHT22;11580;52.562;13.418;2022-11-20T12:09:52;9.70;28.90
22827;DHT22;11580;52.562;13.418;2022-11-20T12:12:27;9.60;29.00
22827;DHT22;11580;52.562;13.418;2022-11-20T12:14:58;9.50;28.90
22827;DHT22;11580;52.562;13.418;2022-11-20T12:17:25;9.40;28.90
22827;DHT22;11580;52.562;13.418;2022-11-20T12:19:52;9.30;28.80
22827;DHT22;11580;52.562;13.418;2022-11-20T12:22:42;9.20;28.90
22827;DHT22;11580;52.562;13.418;2022-11-20T12:25:21;9.10;29.00
22827;DHT22;11580;52.562;13.418;2022-11-20T12:31:27;8.90;29.20
22827;DHT22;11580;52.562;13.418;2022-11-20T12:37:18;8.60;29.30
22827;DHT22;11580;52.562;13.418;2022-11-20T12:39:57;8.60;29.20
22827;DHT22;11580;52.562;13.418;2022-11-20T12:42:46;8.50;29.50
22827;DHT22;11580;52.562;13.418;2022-11-20T12:46:06;8.50;29.50
22827;DHT22;11580;52.562;13.418;2022-11-20T12:48:58;8.50;29.80
22827;DHT22;11580;52.562;13.418;2022-11-20T12:52:02;8.40;29.30
22827;DHT22;11580;52.562;13.418;2022-11-20T12:54:58;8.40;29.30
22827;DHT22;11580;52.562;13.418;2022-11-20T12:57:44;8.40;29.50
22827;DHT22;11580;52.562;13.418;2022-11-20T13:00:19;8.40;29.60
22827;DHT22;11580;52.562;13.418;2022-11-20T13:03:20;8.40;29.60
22827;DHT22;11580;52.562;13.418;2022-11-20T13:06:03;8.50;29.30
22827;DHT22;11580;52.562;13.418;2022-11-20T13:08:39;8.50;29.60
22827;DHT22;11580;52.562;13.418;2022-11-20T13:11:14;8.50;29.60
22827;DHT22;11580;52.562;13.418;2022-11-20T13:14:11;8.60;29.60
22827;DHT22;11580;52.562;13.418;2022-11-20T13:16:50;8.60;29.50
22827;DHT22;11580;52.562;13.418;2022-11-20T13:19:20;8.70;29.60
22827;DHT22;11580;52.562;13.418;2022-11-20T13:21:49;8.70;29.90
22827;DHT22;11580;52.562;13.418;2022-11-20T13:24:26;8.80;29.80
22827;DHT22;11580;52.562;13.418;2022-11-20T13:27:03;8.90;29.30
22827;DHT22;11580;52.562;13.418;2022-11-20T13:29:35;8.90;29.20
22827;DHT22;11580;52.562;13.418;2022-11-20T13:32:06;9.00;29.30
22827;DHT22;11580;52.562;13.418;2022-11-20T13:34:51;9.00;29.60
22827;DHT22;11580;52.562;13.418;2022-11-20T13:37:27;9.00;29.20
22827;DHT22;11580;52.562;13.418;2022-11-20T13:40:11;9.00;28.60
22827;DHT22;11580;52.562;13.418;2022-11-20T13:42:44;9.00;28.60
22827;DHT22;11580;52.562;13.418;2022-11-20T13:45:24;8.90;28.60
22827;DHT22;11580;52.562;13.418;2022-11-20T13:47:53;8.90;28.60
22827;DHT22;11580;52.562;13.418;2022-11-20T13:50:38;8.80;28.70
22827;DHT22;11580;52.562;13.418;2022-11-20T13:53:23;8.80;28.50
22827;DHT22;11580;52.562;13.418;2022-11-20T13:56:05;8.80;28.50
22827;DHT22;11580;52.562;13.418;2022-11-20T13:58:45;8.70;28.60
22827;DHT22;11580;52.562;13.418;2022-11-20T14:01:24;8.70;28.50
22827;DHT22;11580;52.562;13.418;2022-11-20T14:03:53;8.60;28.60
22827;DHT22;11580;52.562;13.418;2022-11-20T14:06:25;8.60;28.70
22827;DHT22;11580;52.562;13.418;2022-11-20T14:08:55;8.50;28.60
22827;DHT22;11580;52.562;13.418;2022-11-20T14:11:24;8.50;28.70
22827;DHT22;11580;52.562;13.418;2022-11-20T14:13:57;8.40;28.70
22827;DHT22;11580;52.562;13.418;2022-11-20T14:16:29;8.40;28.60
22827;DHT22;11580;52.562;13.418;2022-11-20T14:19:27;8.30;28.60
22827;DHT22;11580;52.562;13.418;2022-11-20T14:22:17;8.20;28.50
22827;DHT22;11580;52.562;13.418;2022-11-20T14:24:46;8.20;28.40
22827;DHT22;11580;52.562;13.418;2022-11-20T14:27:15;8.10;28.70
22827;DHT22;11580;52.562;13.418;2022-11-20T14:29:46;8.00;28.70
22827;DHT22;11580;52.562;13.418;2022-11-20T14:32:19;8.00;28.80
22827;DHT22;11580;52.562;13.418;2022-11-20T14:34:50;7.90;28.90
22827;DHT22;11580;52.562;13.418;2022-11-20T14:37:21;7.80;29.00
22827;DHT22;11580;52.562;13.418;2022-11-20T14:39:52;7.80;29.00
22827;DHT22;11580;52.562;13.418;2022-11-20T14:42:21;7.80;29.10
22827;DHT22;11580;52.562;13.418;2022-11-20T14:44:52;7.70;29.10
22827;DHT22;11580;52.562;13.418;2022-11-20T14:47:24;7.70;29.10
22827;DHT22;11580;52.562;13.418;2022-11-20T14:49:54;7.70;29.10
22827;DHT22;11580;52.562;13.418;2022-11-20T14:52:24;7.70;29.20
22827;DHT22;11580;52.562;13.418;2022-11-20T14:54:55;7.70;29.20
22827;DHT22;11580;52.562;13.418;2022-11-20T14:57:27;7.60;29.20
22827;DHT22;11580;52.562;13.418;2022-11-20T15:00:07;7.60;29.20
22827;DHT22;11580;52.562;13.418;2022-11-20T15:02:48;7.60;29.10
22827;DHT22;11580;52.562;13.418;2022-11-20T15:05:18;7.60;29.30
22827;DHT22;11580;52.562;13.418;2022-11-20T15:07:48;7.60;29.20
22827;DHT22;11580;52.562;13.418;2022-11-20T15:10:22;7.60;29.30
22827;DHT22;11580;52.562;13.418;2022-11-20T15:12:52;7.60;29.20
22827;DHT22;11580;52.562;13.418;2022-11-20T15:15:27;7.60;29.30
22827;DHT22;11580;52.562;13.418;2022-11-20T15:17:59;7.60;29.30
22827;DHT22;11580;52.562;13.418;2022-11-20T15:20:28;7.60;29.30
22827;DHT22;11580;52.562;13.418;2022-11-20T15:22:58;7.60;29.40
22827;DHT22;11580;52.562;13.418;2022-11-20T15:25:25;7.60;29.40
22827;DHT22;11580;52.562;13.418;2022-11-20T15:27:55;7.60;29.50
22827;DHT22;11580;52.562;13.418;2022-11-20T15:30:23;7.60;29.50
22827;DHT22;11580;52.562;13.418;2022-11-20T15:32:51;7.50;29.40
22827;DHT22;11580;52.562;13.418;2022-11-20T15:35:20;7.60;29.40
22827;DHT22;11580;52.562;13.418;2022-11-20T15:37:47;7.50;29.30
22827;DHT22;11580;52.562;13.418;2022-11-20T15:40:14;7.50;29.90
22827;DHT22;11580;52.562;13.418;2022-11-20T15:42:41;7.50;29.40
22827;DHT22;11580;52.562;13.418;2022-11-20T15:45:29;7.50;29.40
22827;DHT22;11580;52.562;13.418;2022-11-20T15:47:59;7.50;29.40
22827;DHT22;11580;52.562;13.418;2022-11-20T15:50:33;7.50;29.40
22827;DHT22;11580;52.562;13.418;2022-11-20T15:53:04;7.50;29.40
22827;DHT22;11580;52.562;13.418;2022-11-20T15:55:31;7.50;29.50
22827;DHT22;11580;52.562;13.418;2022-11-20T15:57:59;7.50;29.50
22827;DHT22;11580;52.562;13.418;2022-11-20T16:00:26;7.50;29.40
22827;DHT22;11580;52.562;13.418;2022-11-20T16:02:53;7.50;29.30
22827;DHT22;11580;52.562;13.418;2022-11-20T16:05:20;7.60;29.30